sensor_id;sensor_type;location;lat;lon;timestamp;pressure;altitude;pressure_sealevel;temperature
78225;BMP280;67498;53.650;10.090;2023-11-19T00:01:00;100773.38;;;5.13
78225;BMP280;67498;53.650;10.090;2023-11-19T00:03:26;100772.72;;;5.20
78225;BMP280;67498;53.650;10.090;2023-11-19T00:05:56;100790.22;;;5.30
78225;BMP280;67498;53.650;10.090;2023-11-19T00:08:24;100769.09;;;5.24
78225;BMP280;67498;53.650;10.090;2023-11-19T00:10:50;100776.16;;;5.31
78225;BMP280;67498;53.650;10.090;2023-11-19T00:13:16;100758.38;;;5.26
78225;BMP280;67498;53.650;10.090;2023-11-19T00:15:41;100751.31;;;5.23
78225;BMP280;67498;53.650;10.090;2023-11-19T00:18:06;100732.78;;;5.21
78225;BMP280;67498;53.650;10.090;2023-11-19T00:20:32;100735.53;;;5.35
78225;BMP280;67498;53.650;10.090;2023-11-19T00:23:00;100737.72;;;5.33
78225;BMP280;67498;53.650;10.090;2023-11-19T00:25:27;100718.53;;;5.34
78225;BMP280;67498;53.650;10.090;2023-11-19T00:27:52;100718.94;;;5.36
78225;BMP280;67498;53.650;10.090;2023-11-19T00:30:18;100697.06;;;5.30
78225;BMP280;67498;53.650;10.090;2023-11-19T00:32:44;100690.75;;;5.28
78225;BMP280;67498;53.650;10.090;2023-11-19T00:35:10;100684.13;;;5.30
78225;BMP280;67498;53.650;10.090;2023-11-19T00:37:36;100658.50;;;5.21
78225;BMP280;67498;53.650;10.090;2023-11-19T00:40:01;100658.22;;;5.27
78225;BMP280;67498;53.650;10.090;2023-11-19T00:42:30;100656.81;;;5.36
78225;BMP280;67498;53.650;10.090;2023-11-19T00:44:55;100662.34;;;5.38
78225;BMP280;67498;53.650;10.090;2023-11-19T00:47:34;100647.91;;;5.34
78225;BMP280;67498;53.650;10.090;2023-11-19T00:50:00;100653.50;;;5.39
78225;BMP280;67498;53.650;10.090;2023-11-19T00:52:25;100651.25;;;5.38
78225;BMP280;67498;53.650;10.090;2023-11-19T00:54:51;100640.50;;;5.36
78225;BMP280;67498;53.650;10.090;2023-11-19T00:57:16;100641.34;;;5.43
78225;BMP280;67498;53.650;10.090;2023-11-19T00:59:42;100630.22;;;5.39
78225;BMP280;67498;53.650;10.090;2023-11-19T01:02:08;100616.94;;;5.41
78225;BMP280;67498;53.650;10.090;2023-11-19T01:04:34;100615.00;;;5.34
78225;BMP280;67498;53.650;10.090;2023-11-19T01:07:02;100604.31;;;5.39
78225;BMP280;67498;53.650;10.090;2023-11-19T01:09:29;100588.78;;;5.39
78225;BMP280;67498;53.650;10.090;2023-11-19T01:11:54;100590.31;;;5.47
78225;BMP280;67498;53.650;10.090;2023-11-19T01:14:19;100589.97;;;5.49
78225;BMP280;67498;53.650;10.090;2023-11-19T01:16:45;100585.50;;;5.42
78225;BMP280;67498;53.650;10.090;2023-11-19T01:19:11;100580.75;;;5.52
78225;BMP280;67498;53.650;10.090;2023-11-19T01:21:36;100560.00;;;5.44
78225;BMP280;67498;53.650;10.090;2023-11-19T01:24:01;100551.88;;;5.46
78225;BMP280;67498;53.650;10.090;2023-11-19T01:26:29;100549.28;;;5.46
78225;BMP280;67498;53.650;10.090;2023-11-19T01:28:54;100558.19;;;5.52
78225;BMP280;67498;53.650;10.090;2023-11-19T01:31:19;100543.75;;;5.51
78225;BMP280;67498;53.650;10.090;2023-11-19T01:33:44;100526.00;;;5.46
78225;BMP280;67498;53.650;10.090;2023-11-19T01:36:14;100531.56;;;5.52
78225;BMP280;67498;53.650;10.090;2023-11-19T01:38:39;100496.69;;;5.38
78225;BMP280;67498;53.650;10.090;2023-11-19T01:41:05;100508.25;;;5.52
78225;BMP280;67498;53.650;10.090;2023-11-19T01:43:39;100503.13;;;5.55
78225;BMP280;67498;53.650;10.090;2023-11-19T01:46:06;100503.84;;;5.56
78225;BMP280;67498;53.650;10.090;2023-11-19T01:48:34;100483.84;;;5.49
78225;BMP280;67498;53.650;10.090;2023-11-19T01:51:02;100479.41;;;5.46
78225;BMP280;67498;53.650;10.090;2023-11-19T01:53:29;100477.22;;;5.55
78225;BMP280;67498;53.650;10.090;2023-11-19T01:55:55;100477.19;;;5.52
78225;BMP280;67498;53.650;10.090;2023-11-19T01:58:22;100460.50;;;5.42
78225;BMP280;67498;53.650;10.090;2023-11-19T02:00:48;100478.72;;;5.56
78225;BMP280;67498;53.650;10.090;2023-11-19T02:03:14;100468.75;;;5.58
78225;BMP280;67498;53.650;10.090;2023-11-19T02:05:39;100469.09;;;5.57
78225;BMP280;67498;53.650;10.090;2023-11-19T02:08:05;100465.75;;;5.56
78225;BMP280;67498;53.650;10.090;2023-11-19T02:10:30;100447.59;;;5.53
78225;BMP280;67498;53.650;10.090;2023-11-19T02:12:57;100449.09;;;5.54
78225;BMP280;67498;53.650;10.090;2023-11-19T02:15:22;100441.69;;;5.52
78225;BMP280;67498;53.650;10.090;2023-11-19T02:17:50;100424.69;;;5.55
78225;BMP280;67498;53.650;10.090;2023-11-19T02:20:15;100415.84;;;5.56
78225;BMP280;67498;53.650;10.090;2023-11-19T02:22:41;100423.59;;;5.59
78225;BMP280;67498;53.650;10.090;2023-11-19T02:25:07;100408.06;;;5.56
78225;BMP280;67498;53.650;10.090;2023-11-19T02:27:44;100399.56;;;5.55
78225;BMP280;67498;53.650;10.090;2023-11-19T02:30:11;100398.78;;;5.55
78225;BMP280;67498;53.650;10.090;2023-11-19T02:32:36;100403.63;;;5.63
78225;BMP280;67498;53.650;10.090;2023-11-19T02:35:04;100392.91;;;5.58
78225;BMP280;67498;53.650;10.090;2023-11-19T02:37:29;100392.91;;;5.58
78225;BMP280;67498;53.650;10.090;2023-11-19T02:39:54;100387.75;;;5.61
78225;BMP280;67498;53.650;10.090;2023-11-19T02:42:20;100370.75;;;5.67
78225;BMP280;67498;53.650;10.090;2023-11-19T02:44:45;100345.19;;;5.59
78225;BMP280;67498;53.650;10.090;2023-11-19T02:47:11;100380.00;;;5.65
78225;BMP280;67498;53.650;10.090;2023-11-19T02:49:37;100365.53;;;5.64
78225;BMP280;67498;53.650;10.090;2023-11-19T02:52:02;100354.09;;;5.61
78225;BMP280;67498;53.650;10.090;2023-11-19T02:54:30;100347.44;;;5.67
78225;BMP280;67498;53.650;10.090;2023-11-19T02:57:00;100336.69;;;5.58
78225;BMP280;67498;53.650;10.090;2023-11-19T02:59:26;100324.84;;;5.64
78225;BMP280;67498;53.650;10.090;2023-11-19T03:01:53;100325.97;;;5.63
78225;BMP280;67498;53.650;10.090;2023-11-19T03:04:19;100320.06;;;5.63
78225;BMP280;67498;53.650;10.090;2023-11-19T03:06:45;100311.16;;;5.64
78225;BMP280;67498;53.650;10.090;2023-11-19T03:09:11;100316.00;;;5.69
78225;BMP280;67498;53.650;10.090;2023-11-19T03:11:36;100316.03;;;5.73
78225;BMP280;67498;53.650;10.090;2023-11-19T03:14:01;100293.06;;;5.67
78225;BMP280;67498;53.650;10.090;2023-11-19T03:16:28;100300.09;;;5.74
78225;BMP280;67498;53.650;10.090;2023-11-19T03:18:53;100291.59;;;5.74
78225;BMP280;67498;53.650;10.090;2023-11-19T03:21:19;100284.56;;;5.74
78225;BMP280;67498;53.650;10.090;2023-11-19T03:23:44;100271.63;;;5.74
78225;BMP280;67498;53.650;10.090;2023-11-19T03:26:10;100281.97;;;5.81
78225;BMP280;67498;53.650;10.090;2023-11-19T03:28:36;100277.16;;;5.83
78225;BMP280;67498;53.650;10.090;2023-11-19T03:31:04;100253.88;;;5.76
78225;BMP280;67498;53.650;10.090;2023-11-19T03:33:31;100260.91;;;5.90
78225;BMP280;67498;53.650;10.090;2023-11-19T03:35:56;100250.56;;;5.90
78225;BMP280;67498;53.650;10.090;2023-11-19T03:38:23;100235.75;;;5.87
78225;BMP280;67498;53.650;10.090;2023-11-19T03:40:48;100241.31;;;5.89
78225;BMP280;67498;53.650;10.090;2023-11-19T03:43:14;100232.78;;;5.88
78225;BMP280;67498;53.650;10.090;2023-11-19T03:45:39;100242.03;;;5.93
78225;BMP280;67498;53.650;10.090;2023-11-19T03:48:04;100250.19;;;5.99
78225;BMP280;67498;53.650;10.090;2023-11-19T03:50:30;100237.59;;;5.97
78225;BMP280;67498;53.650;10.090;2023-11-19T03:52:55;100230.94;;;6.00
78225;BMP280;67498;53.650;10.090;2023-11-19T03:55:20;100245.75;;;6.06
78225;BMP280;67498;53.650;10.090;2023-11-19T03:57:45;100227.25;;;6.01
78225;BMP280;67498;53.650;10.090;2023-11-19T04:00:12;100234.63;;;6.02
78225;BMP280;67498;53.650;10.090;2023-11-19T04:02:39;100236.13;;;6.07
78225;BMP280;67498;53.650;10.090;2023-11-19T04:05:05;100228.34;;;6.10
78225;BMP280;67498;53.650;10.090;2023-11-19T04:07:32;100216.88;;;6.08
78225;BMP280;67498;53.650;10.090;2023-11-19T04:09:57;100222.03;;;6.11
78225;BMP280;67498;53.650;10.090;2023-11-19T04:12:22;100215.75;;;6.16
78225;BMP280;67498;53.650;10.090;2023-11-19T04:14:48;100222.03;;;6.19
78225;BMP280;67498;53.650;10.090;2023-11-19T04:17:13;100210.94;;;6.18
78225;BMP280;67498;53.650;10.090;2023-11-19T04:19:39;100210.91;;;6.25
78225;BMP280;67498;53.650;10.090;2023-11-19T04:22:09;100192.78;;;6.22
78225;BMP280;67498;53.650;10.090;2023-11-19T04:24:35;100190.53;;;6.24
78225;BMP280;67498;53.650;10.090;2023-11-19T04:27:00;100187.94;;;6.24
78225;BMP280;67498;53.650;10.090;2023-11-19T04:29:25;100203.13;;;6.32
78225;BMP280;67498;53.650;10.090;2023-11-19T04:31:51;100186.09;;;6.31
78225;BMP280;67498;53.650;10.090;2023-11-19T04:34:16;100162.06;;;6.20
78225;BMP280;67498;53.650;10.090;2023-11-19T04:36:41;100180.53;;;6.36
78225;BMP280;67498;53.650;10.090;2023-11-19T04:39:06;100177.94;;;6.33
78225;BMP280;67498;53.650;10.090;2023-11-19T04:41:46;100175.69;;;6.38
78225;BMP280;67498;53.650;10.090;2023-11-19T04:44:12;100162.72;;;6.38
78225;BMP280;67498;53.650;10.090;2023-11-19T04:46:37;100164.56;;;6.45
78225;BMP280;67498;53.650;10.090;2023-11-19T04:49:02;100179.75;;;6.43
78225;BMP280;67498;53.650;10.090;2023-11-19T04:51:28;100176.41;;;6.53
78225;BMP280;67498;53.650;10.090;2023-11-19T04:53:53;100152.00;;;6.44
78225;BMP280;67498;53.650;10.090;2023-11-19T04:56:18;100164.91;;;6.51
78225;BMP280;67498;53.650;10.090;2023-11-19T04:58:45;100178.59;;;6.55
78225;BMP280;67498;53.650;10.090;2023-11-19T05:01:13;100168.22;;;6.58
78225;BMP280;67498;53.650;10.090;2023-11-19T05:03:40;100165.25;;;6.60
78225;BMP280;67498;53.650;10.090;2023-11-19T05:06:06;100155.59;;;6.68
78225;BMP280;67498;53.650;10.090;2023-11-19T05:08:32;100153.00;;;6.68
78225;BMP280;67498;53.650;10.090;2023-11-19T05:10:57;100159.28;;;6.70
78225;BMP280;67498;53.650;10.090;2023-11-19T05:13:23;100154.09;;;6.74
78225;BMP280;67498;53.650;10.090;2023-11-19T05:15:48;100140.75;;;6.65
78225;BMP280;67498;53.650;10.090;2023-11-19T05:18:13;100149.97;;;6.80
78225;BMP280;67498;53.650;10.090;2023-11-19T05:20:39;100134.00;;;6.81
78225;BMP280;67498;53.650;10.090;2023-11-19T05:23:04;100132.91;;;6.82
78225;BMP280;67498;53.650;10.090;2023-11-19T05:25:29;100128.03;;;6.92
78225;BMP280;67498;53.650;10.090;2023-11-19T05:27:54;100125.44;;;6.92
78225;BMP280;67498;53.650;10.090;2023-11-19T05:30:20;100119.13;;;6.96
78225;BMP280;67498;53.650;10.090;2023-11-19T05:32:45;100116.50;;;7.00
78225;BMP280;67498;53.650;10.090;2023-11-19T05:35:11;100120.88;;;7.10
78225;BMP280;67498;53.650;10.090;2023-11-19T05:37:37;100114.97;;;7.06
78225;BMP280;67498;53.650;10.090;2023-11-19T05:40:02;100121.91;;;7.20
78225;BMP280;67498;53.650;10.090;2023-11-19T05:42:29;100123.38;;;7.24
78225;BMP280;67498;53.650;10.090;2023-11-19T05:44:55;100117.41;;;7.27
78225;BMP280;67498;53.650;10.090;2023-11-19T05:47:20;100119.56;;;7.36
78225;BMP280;67498;53.650;10.090;2023-11-19T05:49:45;100121.72;;;7.41
78225;BMP280;67498;53.650;10.090;2023-11-19T05:52:10;100118.00;;;7.46
78225;BMP280;67498;53.650;10.090;2023-11-19T05:54:37;100123.09;;;7.57
78225;BMP280;67498;53.650;10.090;2023-11-19T05:57:04;100112.28;;;7.62
78225;BMP280;67498;53.650;10.090;2023-11-19T05:59:30;100127.44;;;7.70
78225;BMP280;67498;53.650;10.090;2023-11-19T06:01:57;100116.63;;;7.72
78225;BMP280;67498;53.650;10.090;2023-11-19T06:04:23;100119.56;;;7.74
78225;BMP280;67498;53.650;10.090;2023-11-19T06:06:48;100127.69;;;7.83
78225;BMP280;67498;53.650;10.090;2023-11-19T06:09:13;100120.63;;;7.84
78225;BMP280;67498;53.650;10.090;2023-11-19T06:11:39;100114.97;;;7.92
78225;BMP280;67498;53.650;10.090;2023-11-19T06:14:04;100108.63;;;7.93
78225;BMP280;67498;53.650;10.090;2023-11-19T06:16:30;100114.47;;;8.01
78225;BMP280;67498;53.650;10.090;2023-11-19T06:18:56;100117.72;;;8.09
78225;BMP280;67498;53.650;10.090;2023-11-19T06:21:21;100119.13;;;8.17
78225;BMP280;67498;53.650;10.090;2023-11-19T06:23:46;100117.25;;;8.17
78225;BMP280;67498;53.650;10.090;2023-11-19T06:26:12;100114.25;;;8.19
78225;BMP280;67498;53.650;10.090;2023-11-19T06:28:39;100116.47;;;8.20
78225;BMP280;67498;53.650;10.090;2023-11-19T06:31:04;100126.38;;;8.33
78225;BMP280;67498;53.650;10.090;2023-11-19T06:33:29;100108.19;;;8.29
78225;BMP280;67498;53.650;10.090;2023-11-19T06:35:55;100121.31;;;8.49
78225;BMP280;67498;53.650;10.090;2023-11-19T06:38:20;100114.59;;;8.52
78225;BMP280;67498;53.650;10.090;2023-11-19T06:40:45;100115.63;;;8.58
78225;BMP280;67498;53.650;10.090;2023-11-19T06:43:11;100119.28;;;8.64
78225;BMP280;67498;53.650;10.090;2023-11-19T06:45:36;100120.19;;;8.77
78225;BMP280;67498;53.650;10.090;2023-11-19T06:48:04;100116.31;;;8.89
78225;BMP280;67498;53.650;10.090;2023-11-19T06:50:30;100111.28;;;9.02
78225;BMP280;67498;53.650;10.090;2023-11-19T06:52:55;100114.41;;;9.17
78225;BMP280;67498;53.650;10.090;2023-11-19T06:55:21;100102.31;;;9.26
78225;BMP280;67498;53.650;10.090;2023-11-19T06:57:46;100111.34;;;9.42
78225;BMP280;67498;53.650;10.090;2023-11-19T07:00:11;100105.63;;;9.50
78225;BMP280;67498;53.650;10.090;2023-11-19T07:02:37;100112.97;;;9.55
78225;BMP280;67498;53.650;10.090;2023-11-19T07:05:03;100100.19;;;9.61
78225;BMP280;67498;53.650;10.090;2023-11-19T07:07:30;100120.38;;;9.77
78225;BMP280;67498;53.650;10.090;2023-11-19T07:09:58;100131.72;;;9.90
78225;BMP280;67498;53.650;10.090;2023-11-19T07:12:24;100116.78;;;9.91
78225;BMP280;67498;53.650;10.090;2023-11-19T07:14:52;100136.56;;;10.08
78225;BMP280;67498;53.650;10.090;2023-11-19T07:17:17;100115.94;;;10.14
78225;BMP280;67498;53.650;10.090;2023-11-19T07:19:42;100124.38;;;10.21
78225;BMP280;67498;53.650;10.090;2023-11-19T07:22:08;100124.75;;;10.20
78225;BMP280;67498;53.650;10.090;2023-11-19T07:24:33;100132.75;;;10.29
78225;BMP280;67498;53.650;10.090;2023-11-19T07:26:58;100135.31;;;10.32
78225;BMP280;67498;53.650;10.090;2023-11-19T07:29:23;100142.25;;;10.39
78225;BMP280;67498;53.650;10.090;2023-11-19T07:31:49;100125.19;;;10.35
78225;BMP280;67498;53.650;10.090;2023-11-19T07:34:15;100125.63;;;10.33
78225;BMP280;67498;53.650;10.090;2023-11-19T07:36:40;100130.69;;;10.40
78225;BMP280;67498;53.650;10.090;2023-11-19T07:39:06;100140.88;;;10.51
78225;BMP280;67498;53.650;10.090;2023-11-19T07:41:32;100120.25;;;10.40
78225;BMP280;67498;53.650;10.090;2023-11-19T07:43:57;100139.16;;;10.61
78225;BMP280;67498;53.650;10.090;2023-11-19T07:46:23;100126.22;;;10.57
78225;BMP280;67498;53.650;10.090;2023-11-19T07:48:50;100148.00;;;10.67
78225;BMP280;67498;53.650;10.090;2023-11-19T07:51:15;100156.13;;;10.69
78225;BMP280;67498;53.650;10.090;2023-11-19T07:53:41;100148.63;;;10.71
78225;BMP280;67498;53.650;10.090;2023-11-19T07:56:07;100154.19;;;10.73
78225;BMP280;67498;53.650;10.090;2023-11-19T07:58:33;100152.28;;;10.73
78225;BMP280;67498;53.650;10.090;2023-11-19T08:00:58;100161.19;;;10.76
78225;BMP280;67498;53.650;10.090;2023-11-19T08:03:23;100168.94;;;10.79
78225;BMP280;67498;53.650;10.090;2023-11-19T08:05:49;100157.78;;;10.79
78225;BMP280;67498;53.650;10.090;2023-11-19T08:08:14;100142.13;;;10.79
78225;BMP280;67498;53.650;10.090;2023-11-19T08:10:40;100167.25;;;10.89
78225;BMP280;67498;53.650;10.090;2023-11-19T08:13:06;100166.09;;;10.90
78225;BMP280;67498;53.650;10.090;2023-11-19T08:15:31;100167.19;;;10.93
78225;BMP280;67498;53.650;10.090;2023-11-19T08:17:57;100156.41;;;10.91
78225;BMP280;67498;53.650;10.090;2023-11-19T08:20:22;100175.25;;;10.98
78225;BMP280;67498;53.650;10.090;2023-11-19T08:22:48;100173.38;;;10.99
78225;BMP280;67498;53.650;10.090;2023-11-19T08:25:13;100170.03;;;10.98
78225;BMP280;67498;53.650;10.090;2023-11-19T08:27:39;100167.88;;;10.93
78225;BMP280;67498;53.650;10.090;2023-11-19T08:30:05;100168.97;;;10.96
78225;BMP280;67498;53.650;10.090;2023-11-19T08:32:31;100176.63;;;11.03
78225;BMP280;67498;53.650;10.090;2023-11-19T08:34:57;100176.63;;;11.03
78225;BMP280;67498;53.650;10.090;2023-11-19T08:37:22;100172.97;;;11.00
78225;BMP280;67498;53.650;10.090;2023-11-19T08:39:48;100169.19;;;11.01
78225;BMP280;67498;53.650;10.090;2023-11-19T08:42:13;100178.81;;;11.05
78225;BMP280;67498;53.650;10.090;2023-11-19T08:44:38;100183.56;;;11.10
78225;BMP280;67498;53.650;10.090;2023-11-19T08:47:07;100179.47;;;11.09
78225;BMP280;67498;53.650;10.090;2023-11-19T08:49:32;100180.34;;;11.02
78225;BMP280;67498;53.650;10.090;2023-11-19T08:51:57;100171.72;;;11.05
78225;BMP280;67498;53.650;10.090;2023-11-19T08:54:22;100191.69;;;11.12
78225;BMP280;67498;53.650;10.090;2023-11-19T08:56:48;100183.81;;;11.15
78225;BMP280;67498;53.650;10.090;2023-11-19T08:59:15;100192.78;;;11.14
78225;BMP280;67498;53.650;10.090;2023-11-19T09:01:41;100187.22;;;11.12
78225;BMP280;67498;53.650;10.090;2023-11-19T09:04:06;100189.84;;;11.12
78225;BMP280;67498;53.650;10.090;2023-11-19T09:06:32;100206.09;;;11.20
78225;BMP280;67498;53.650;10.090;2023-11-19T09:08:58;100195.28;;;11.18
78225;BMP280;67498;53.650;10.090;2023-11-19T09:11:27;100200.94;;;11.16
78225;BMP280;67498;53.650;10.090;2023-11-19T09:13:52;100214.31;;;11.18
78225;BMP280;67498;53.650;10.090;2023-11-19T09:16:17;100209.19;;;11.15
78225;BMP280;67498;53.650;10.090;2023-11-19T09:18:43;100207.22;;;11.19
78225;BMP280;67498;53.650;10.090;2023-11-19T09:21:10;100186.59;;;11.08
78225;BMP280;67498;53.650;10.090;2023-11-19T09:23:36;100192.03;;;11.14
78225;BMP280;67498;53.650;10.090;2023-11-19T09:26:05;100206.41;;;11.22
78225;BMP280;67498;53.650;10.090;2023-11-19T09:28:30;100205.56;;;11.25
78225;BMP280;67498;53.650;10.090;2023-11-19T09:30:56;100215.03;;;11.35
78225;BMP280;67498;53.650;10.090;2023-11-19T09:33:31;100214.31;;;11.35
78225;BMP280;67498;53.650;10.090;2023-11-19T09:35:59;100209.75;;;11.39
78225;BMP280;67498;53.650;10.090;2023-11-19T09:38:27;100208.75;;;11.33
78225;BMP280;67498;53.650;10.090;2023-11-19T09:40:53;100201.22;;;11.35
78225;BMP280;67498;53.650;10.090;2023-11-19T09:43:18;100213.16;;;11.36
78225;BMP280;67498;53.650;10.090;2023-11-19T09:45:53;100204.34;;;11.30
78225;BMP280;67498;53.650;10.090;2023-11-19T09:48:19;100214.63;;;11.37
78225;BMP280;67498;53.650;10.090;2023-11-19T09:50:47;100195.44;;;11.27
78225;BMP280;67498;53.650;10.090;2023-11-19T09:53:13;100212.38;;;11.39
78225;BMP280;67498;53.650;10.090;2023-11-19T09:55:41;100215.69;;;11.39
78225;BMP280;67498;53.650;10.090;2023-11-19T09:58:07;100212.25;;;11.42
78225;BMP280;67498;53.650;10.090;2023-11-19T10:00:33;100215.84;;;11.48
78225;BMP280;67498;53.650;10.090;2023-11-19T10:03:00;100206.03;;;11.53
78225;BMP280;67498;53.650;10.090;2023-11-19T10:05:25;100211.50;;;11.58
78225;BMP280;67498;53.650;10.090;2023-11-19T10:07:51;100215.47;;;11.63
78225;BMP280;67498;53.650;10.090;2023-11-19T10:10:17;100204.78;;;11.57
78225;BMP280;67498;53.650;10.090;2023-11-19T10:12:45;100200.69;;;11.56
78225;BMP280;67498;53.650;10.090;2023-11-19T10:15:23;100204.88;;;11.54
78225;BMP280;67498;53.650;10.090;2023-11-19T10:17:56;100210.50;;;11.52
78225;BMP280;67498;53.650;10.090;2023-11-19T10:20:22;100215.75;;;11.52
78225;BMP280;67498;53.650;10.090;2023-11-19T10:22:47;100220.47;;;11.57
78225;BMP280;67498;53.650;10.090;2023-11-19T10:27:49;100221.75;;;11.65
78225;BMP280;67498;53.650;10.090;2023-11-19T10:30:24;100228.44;;;11.66
78225;BMP280;67498;53.650;10.090;2023-11-19T10:33:11;100206.47;;;11.64
78225;BMP280;67498;53.650;10.090;2023-11-19T10:35:55;100224.91;;;11.73
78225;BMP280;67498;53.650;10.090;2023-11-19T10:38:25;100228.84;;;11.81
78225;BMP280;67498;53.650;10.090;2023-11-19T10:40:51;100218.69;;;11.83
78225;BMP280;67498;53.650;10.090;2023-11-19T10:43:18;100218.81;;;11.92
78225;BMP280;67498;53.650;10.090;2023-11-19T10:45:43;100225.50;;;11.93
78225;BMP280;67498;53.650;10.090;2023-11-19T10:48:09;100224.06;;;11.92
78225;BMP280;67498;53.650;10.090;2023-11-19T10:50:39;100227.16;;;11.87
78225;BMP280;67498;53.650;10.090;2023-11-19T10:53:04;100219.09;;;11.82
78225;BMP280;67498;53.650;10.090;2023-11-19T10:55:32;100218.88;;;11.76
78225;BMP280;67498;53.650;10.090;2023-11-19T10:58:10;100222.25;;;11.77
78225;BMP280;67498;53.650;10.090;2023-11-19T11:00:43;100222.50;;;11.79
78225;BMP280;67498;53.650;10.090;2023-11-19T11:03:20;100230.56;;;11.71
78225;BMP280;67498;53.650;10.090;2023-11-19T11:05:48;100226.25;;;11.65
78225;BMP280;67498;53.650;10.090;2023-11-19T11:08:13;100225.44;;;11.68
78225;BMP280;67498;53.650;10.090;2023-11-19T11:10:43;100220.84;;;11.72
78225;BMP280;67498;53.650;10.090;2023-11-19T11:13:09;100222.25;;;11.77
78225;BMP280;67498;53.650;10.090;2023-11-19T11:15:35;100231.44;;;11.81
78225;BMP280;67498;53.650;10.090;2023-11-19T11:18:02;100225.13;;;11.79
78225;BMP280;67498;53.650;10.090;2023-11-19T11:20:29;100221.66;;;11.69
78225;BMP280;67498;53.650;10.090;2023-11-19T11:23:26;100234.31;;;11.70
78225;BMP280;67498;53.650;10.090;2023-11-19T11:26:29;100227.72;;;11.66
78225;BMP280;67498;53.650;10.090;2023-11-19T11:38:13;100218.88;;;11.76
78225;BMP280;67498;53.650;10.090;2023-11-19T11:40:43;100238.28;;;11.91
78225;BMP280;67498;53.650;10.090;2023-11-19T11:43:48;100247.41;;;12.00
78225;BMP280;67498;53.650;10.090;2023-11-19T11:48:58;100239.22;;;11.97
78225;BMP280;67498;53.650;10.090;2023-11-19T11:57:21;100226.34;;;11.90
78225;BMP280;67498;53.650;10.090;2023-11-19T11:59:47;100251.03;;;11.89
78225;BMP280;67498;53.650;10.090;2023-11-19T12:02:29;100224.84;;;11.77
78225;BMP280;67498;53.650;10.090;2023-11-19T12:05:01;100224.91;;;11.73
78225;BMP280;67498;53.650;10.090;2023-11-19T12:07:33;100243.03;;;11.80
78225;BMP280;67498;53.650;10.090;2023-11-19T12:10:09;100240.44;;;11.80
78225;BMP280;67498;53.650;10.090;2023-11-19T12:12:39;100223.13;;;11.70
78225;BMP280;67498;53.650;10.090;2023-11-19T12:15:09;100243.03;;;11.80
78225;BMP280;67498;53.650;10.090;2023-11-19T12:17:49;100237.81;;;11.80
78225;BMP280;67498;53.650;10.090;2023-11-19T12:20:15;100229.56;;;11.82
78225;BMP280;67498;53.650;10.090;2023-11-19T12:22:42;100220.34;;;11.77
78225;BMP280;67498;53.650;10.090;2023-11-19T12:25:13;100229.16;;;11.83
78225;BMP280;67498;53.650;10.090;2023-11-19T12:27:51;100219.44;;;11.84
78225;BMP280;67498;53.650;10.090;2023-11-19T12:30:29;100225.28;;;11.88
78225;BMP280;67498;53.650;10.090;2023-11-19T12:32:57;100218.78;;;11.80
78225;BMP280;67498;53.650;10.090;2023-11-19T12:35:23;100221.28;;;11.83
78225;BMP280;67498;53.650;10.090;2023-11-19T12:38:17;100217.94;;;11.83
78225;BMP280;67498;53.650;10.090;2023-11-19T12:41:05;100216.91;;;11.93
78225;BMP280;67498;53.650;10.090;2023-11-19T12:43:41;100224.50;;;12.04
78225;BMP280;67498;53.650;10.090;2023-11-19T12:46:23;100236.66;;;12.10
78225;BMP280;67498;53.650;10.090;2023-11-19T12:49:05;100232.97;;;12.08
78225;BMP280;67498;53.650;10.090;2023-11-19T12:51:34;100231.81;;;12.09
78225;BMP280;67498;53.650;10.090;2023-11-19T12:53:59;100238.41;;;12.01
78225;BMP280;67498;53.650;10.090;2023-11-19T12:56:24;100231.56;;;11.90
78225;BMP280;67498;53.650;10.090;2023-11-19T12:58:50;100234.19;;;11.90
78225;BMP280;67498;53.650;10.090;2023-11-19T13:01:17;100216.56;;;11.78
78225;BMP280;67498;53.650;10.090;2023-11-19T13:03:48;100225.59;;;11.77
78225;BMP280;67498;53.650;10.090;2023-11-19T13:06:15;100208.91;;;11.71
78225;BMP280;67498;53.650;10.090;2023-11-19T13:08:48;100199.88;;;11.59
78225;BMP280;67498;53.650;10.090;2023-11-19T13:11:33;100217.47;;;11.71
78225;BMP280;67498;53.650;10.090;2023-11-19T13:14:02;100218.63;;;11.70
78225;BMP280;67498;53.650;10.090;2023-11-19T13:16:29;100216.19;;;11.63
78225;BMP280;67498;53.650;10.090;2023-11-19T13:18:55;100216.53;;;11.65
78225;BMP280;67498;53.650;10.090;2023-11-19T13:21:20;100213.28;;;11.61
78225;BMP280;67498;53.650;10.090;2023-11-19T13:23:45;100216.88;;;11.67
78225;BMP280;67498;53.650;10.090;2023-11-19T13:26:11;100199.34;;;11.64
78225;BMP280;67498;53.650;10.090;2023-11-19T13:28:37;100195.41;;;11.60
78225;BMP280;67498;53.650;10.090;2023-11-19T13:31:03;100204.72;;;11.61
78225;BMP280;67498;53.650;10.090;2023-11-19T13:33:29;100209.09;;;11.64
78225;BMP280;67498;53.650;10.090;2023-11-19T13:35:56;100201.88;;;11.55
78225;BMP280;67498;53.650;10.090;2023-11-19T13:38:22;100209.41;;;11.66
78225;BMP280;67498;53.650;10.090;2023-11-19T13:40:49;100203.56;;;11.62
78225;BMP280;67498;53.650;10.090;2023-11-19T13:43:14;100206.47;;;11.64
78225;BMP280;67498;53.650;10.090;2023-11-19T13:45:40;100199.34;;;11.64
78225;BMP280;67498;53.650;10.090;2023-11-19T13:48:05;100205.88;;;11.60
78225;BMP280;67498;53.650;10.090;2023-11-19T13:50:31;100212.75;;;11.66
78225;BMP280;67498;53.650;10.090;2023-11-19T13:52:57;100194.09;;;11.52
78225;BMP280;67498;53.650;10.090;2023-11-19T13:55:26;100212.03;;;11.66
78225;BMP280;67498;53.650;10.090;2023-11-19T13:57:51;100204.38;;;11.59
78225;BMP280;67498;53.650;10.090;2023-11-19T14:00:17;100196.53;;;11.59
78225;BMP280;67498;53.650;10.090;2023-11-19T14:02:46;100199.47;;;11.61
78225;BMP280;67498;53.650;10.090;2023-11-19T14:05:15;100197.91;;;11.63
78225;BMP280;67498;53.650;10.090;2023-11-19T14:07:45;100209.41;;;11.66
78225;BMP280;67498;53.650;10.090;2023-11-19T14:10:13;100205.75;;;11.63
78225;BMP280;67498;53.650;10.090;2023-11-19T14:12:39;100199.66;;;11.54